createdAt,value
2022-12-11T00:02:22.681Z,16.67
2022-12-11T00:05:24.759Z,16.55
2022-12-11T00:08:26.887Z,16.64
2022-12-11T00:11:29.035Z,16.65
2022-12-11T00:14:32.118Z,16.55
2022-12-11T00:17:34.040Z,16.58
2022-12-11T00:20:37.974Z,16.49
2022-12-11T00:23:40.714Z,16.51
2022-12-11T00:26:42.771Z,16.51
2022-12-11T00:29:45.055Z,16.52
2022-12-11T00:32:47.179Z,16.37
2022-12-11T00:35:49.542Z,16.26
2022-12-11T00:38:53.063Z,16.35
2022-12-11T00:41:55.362Z,16.28
2022-12-11T00:44:58.045Z,16.39
2022-12-11T00:48:00.288Z,16.37
2022-12-11T00:51:02.325Z,16.27
2022-12-11T00:54:04.516Z,16.25
2022-12-11T00:57:06.521Z,16.20
2022-12-11T01:00:09.115Z,16.18
2022-12-11T01:03:13.640Z,16.16
2022-12-11T01:06:18.946Z,16.08
2022-12-11T01:09:39.712Z,16.00
2022-12-11T01:12:41.792Z,16.00
2022-12-11T01:15:46.210Z,16.08
2022-12-11T01:18:48.231Z,16.05
2022-12-11T01:21:50.205Z,16.09
2022-12-11T01:24:52.307Z,16.06
2022-12-11T01:27:56.197Z,16.03
2022-12-11T01:30:58.411Z,16.09
2022-12-11T01:34:00.495Z,15.96
2022-12-11T01:37:02.716Z,15.87
2022-12-11T01:40:06.949Z,15.83
2022-12-11T01:43:12.040Z,15.57
2022-12-11T01:46:14.122Z,15.83
2022-12-11T01:49:19.033Z,15.85
2022-12-11T01:52:22.726Z,15.82
2022-12-11T01:55:25.016Z,15.89
2022-12-11T01:58:35.371Z,15.85
2022-12-11T02:01:45.340Z,15.86
2022-12-11T02:04:49.687Z,15.79
2022-12-11T02:07:58.904Z,15.69
2022-12-11T02:11:17.366Z,15.56
2022-12-11T02:14:30.482Z,15.40
2022-12-11T02:17:44.443Z,15.30
2022-12-11T02:21:08.180Z,15.18
2022-12-11T02:24:27.418Z,15.16
2022-12-11T02:27:36.760Z,15.13
2022-12-11T02:30:42.052Z,15.16
2022-12-11T02:33:57.016Z,15.04
2022-12-11T02:37:04.510Z,15.20
2022-12-11T02:40:11.365Z,15.07
2022-12-11T02:43:16.232Z,15.29
2022-12-11T02:46:21.840Z,15.30
2022-12-11T02:49:25.278Z,15.36
2022-12-11T02:52:29.697Z,15.34
2022-12-11T02:55:34.694Z,15.29
2022-12-11T02:58:43.219Z,15.30
2022-12-11T03:01:46.625Z,15.38
2022-12-11T03:04:50.586Z,15.17
2022-12-11T03:07:52.562Z,14.94
2022-12-11T03:10:55.031Z,14.89
2022-12-11T03:14:00.350Z,14.95
2022-12-11T03:17:17.424Z,14.90
2022-12-11T03:20:33.618Z,14.99
2022-12-11T03:23:49.061Z,15.00
2022-12-11T03:26:57.268Z,15.00
2022-12-11T03:30:14.396Z,15.00
2022-12-11T03:33:24.841Z,15.03
2022-12-11T03:36:33.626Z,15.23
2022-12-11T03:39:43.814Z,15.33
2022-12-11T03:42:49.848Z,15.39
2022-12-11T03:45:53.913Z,15.32
2022-12-11T03:49:02.262Z,15.36
2022-12-11T03:52:06.214Z,15.38
2022-12-11T03:55:10.912Z,15.38
2022-12-11T03:58:13.125Z,15.29
2022-12-11T04:01:15.406Z,15.03
2022-12-11T04:04:17.586Z,14.86
2022-12-11T04:07:19.741Z,14.93
2022-12-11T04:10:21.753Z,15.06
2022-12-11T04:13:23.890Z,15.00
2022-12-11T04:16:25.898Z,14.99
2022-12-11T04:20:06.550Z,15.04
2022-12-11T04:23:33.354Z,14.93
2022-12-11T04:26:35.380Z,14.79
2022-12-11T04:29:37.349Z,15.26
2022-12-11T04:32:39.547Z,15.38
2022-12-11T04:35:41.582Z,15.37
2022-12-11T04:38:43.620Z,15.39
2022-12-11T04:41:45.564Z,15.42
2022-12-11T04:44:47.698Z,15.41
2022-12-11T04:47:49.680Z,15.37
2022-12-11T04:50:51.675Z,15.27
2022-12-11T04:53:53.753Z,15.06
2022-12-11T04:56:55.788Z,14.93
2022-12-11T04:59:57.759Z,15.01
2022-12-11T05:02:59.920Z,14.87
2022-12-11T05:06:02.039Z,15.04
2022-12-11T05:09:04.397Z,15.03
2022-12-11T05:12:06.439Z,15.02
2022-12-11T05:15:09.164Z,14.98
2022-12-11T05:18:11.583Z,14.99
2022-12-11T05:21:15.304Z,15.45
2022-12-11T05:24:17.423Z,15.50
2022-12-11T05:27:19.534Z,15.58
2022-12-11T05:30:21.466Z,15.55
2022-12-11T05:33:24.193Z,15.50
2022-12-11T05:36:32.306Z,15.49
2022-12-11T05:39:34.366Z,15.45
2022-12-11T05:42:36.391Z,15.46
2022-12-11T05:45:39.054Z,15.09
2022-12-11T05:48:42.072Z,15.00
2022-12-11T05:51:44.245Z,15.00
2022-12-11T05:54:50.077Z,14.95
2022-12-11T05:57:52.143Z,14.98
2022-12-11T06:00:54.517Z,14.91
2022-12-11T06:03:57.978Z,14.98
2022-12-11T06:07:00.758Z,14.97
2022-12-11T06:10:02.766Z,14.94
2022-12-11T06:13:04.971Z,15.28
2022-12-11T06:16:09.031Z,15.42
2022-12-11T06:19:15.979Z,15.49
2022-12-11T06:22:18.340Z,15.49
2022-12-11T06:25:20.312Z,15.46
2022-12-11T06:28:22.451Z,15.49
2022-12-11T06:31:24.488Z,15.10
2022-12-11T06:34:26.554Z,15.35
2022-12-11T06:37:28.554Z,15.85
2022-12-11T06:40:31.022Z,16.48
2022-12-11T06:43:34.726Z,16.33
2022-12-11T06:46:36.738Z,16.33
2022-12-11T06:49:38.698Z,16.64
2022-12-11T06:52:40.943Z,16.68
2022-12-11T06:55:43.776Z,16.83
2022-12-11T06:58:46.037Z,16.95
2022-12-11T07:01:48.427Z,17.05
2022-12-11T07:04:54.938Z,17.09
2022-12-11T07:07:57.637Z,17.28
2022-12-11T07:11:08.128Z,17.31
2022-12-11T07:14:10.156Z,16.99
2022-12-11T07:17:13.677Z,16.87
2022-12-11T07:20:16.040Z,17.11
2022-12-11T07:23:18.110Z,17.08
2022-12-11T07:26:22.371Z,17.43
2022-12-11T07:29:24.707Z,17.30
2022-12-11T07:32:27.015Z,17.10
2022-12-11T07:35:29.113Z,16.99
2022-12-11T07:38:31.233Z,16.92
2022-12-11T07:41:33.478Z,16.68
2022-12-11T07:44:35.598Z,16.58
2022-12-11T07:47:37.663Z,16.52
2022-12-11T07:50:40.085Z,16.45
2022-12-11T07:53:47.459Z,16.42
2022-12-11T07:56:53.477Z,16.42
2022-12-11T07:59:56.059Z,16.45
2022-12-11T08:02:58.108Z,16.52
2022-12-11T08:06:00.155Z,16.48
2022-12-11T08:09:06.238Z,16.61
2022-12-11T08:12:08.285Z,16.70
2022-12-11T08:15:11.124Z,16.83
2022-12-11T08:18:15.157Z,16.93
2022-12-11T08:21:20.679Z,16.98
2022-12-11T08:24:22.908Z,16.95
2022-12-11T08:27:24.917Z,17.01
2022-12-11T08:30:27.346Z,16.94
2022-12-11T08:33:29.466Z,17.01
2022-12-11T08:36:33.146Z,17.10
2022-12-11T08:39:35.691Z,17.13
2022-12-11T08:42:40.584Z,17.09
2022-12-11T08:45:42.727Z,17.14
2022-12-11T08:48:46.443Z,17.08
2022-12-11T08:51:48.438Z,17.11
2022-12-11T08:54:50.517Z,17.12
2022-12-11T08:57:53.609Z,18.16
2022-12-11T09:00:58.384Z,18.69
2022-12-11T09:04:00.480Z,19.13
2022-12-11T09:07:02.549Z,19.48
2022-12-11T09:10:06.482Z,19.78
2022-12-11T09:13:08.706Z,20.16
2022-12-11T09:16:17.242Z,20.31
2022-12-11T09:19:19.393Z,20.37
2022-12-11T09:22:21.650Z,20.33
2022-12-11T09:25:23.798Z,20.46
2022-12-11T09:28:26.181Z,20.55
2022-12-11T09:31:31.657Z,20.62
2022-12-11T09:34:34.210Z,20.74
2022-12-11T09:37:36.376Z,20.91
2022-12-11T09:40:43.470Z,20.88
2022-12-11T09:43:50.877Z,20.93
2022-12-11T09:46:53.019Z,20.93
2022-12-11T09:50:15.640Z,21.09
2022-12-11T09:53:37.139Z,21.08
2022-12-11T09:56:41.977Z,21.50
2022-12-11T10:00:17.977Z,21.48
2022-12-11T10:03:48.723Z,21.56
2022-12-11T10:07:02.601Z,21.44
2022-12-11T10:10:57.440Z,22.10
2022-12-11T10:14:38.450Z,23.54
2022-12-11T10:17:42.226Z,24.21
2022-12-11T10:20:45.468Z,24.43
2022-12-11T10:23:56.642Z,24.57
2022-12-11T10:27:10.454Z,24.41
2022-12-11T10:30:16.070Z,24.05
2022-12-11T10:33:50.364Z,23.29
2022-12-11T10:37:00.202Z,23.05
2022-12-11T10:40:02.839Z,22.78
2022-12-11T10:43:05.306Z,22.76
2022-12-11T10:46:20.355Z,23.08
2022-12-11T10:49:28.486Z,23.64
2022-12-11T10:52:38.246Z,23.89
2022-12-11T10:55:48.576Z,24.13
2022-12-11T10:58:52.232Z,24.25
2022-12-11T11:01:54.642Z,24.32
2022-12-11T11:04:59.306Z,24.42
2022-12-11T11:08:22.597Z,24.49
2022-12-11T11:11:24.559Z,23.99
2022-12-11T11:14:26.723Z,23.45
2022-12-11T11:17:33.772Z,22.28
2022-12-11T11:20:37.227Z,22.20
2022-12-11T11:23:46.235Z,22.47
2022-12-11T11:27:12.879Z,21.33
2022-12-11T11:30:23.154Z,20.80
2022-12-11T11:33:25.681Z,20.48
2022-12-11T11:36:30.902Z,20.21
2022-12-11T11:39:40.302Z,20.13
2022-12-11T11:43:04.263Z,20.11
2022-12-11T11:46:13.995Z,19.94
2022-12-11T11:49:16.739Z,19.66
2022-12-11T11:52:55.266Z,19.28
2022-12-11T11:56:06.130Z,19.49
2022-12-11T11:59:27.147Z,19.47
2022-12-11T12:02:29.466Z,19.31
2022-12-11T12:05:39.588Z,19.07
2022-12-11T12:09:03.561Z,18.95
2022-12-11T12:12:27.417Z,18.77
2022-12-11T12:15:54.928Z,18.69
2022-12-11T12:19:36.878Z,18.52
2022-12-11T12:23:00.645Z,18.54
2022-12-11T12:26:17.362Z,18.35
2022-12-11T12:29:35.375Z,18.50
2022-12-11T12:32:54.192Z,18.46
2022-12-11T12:36:21.667Z,18.40
2022-12-11T12:39:35.033Z,18.39
2022-12-11T12:43:00.128Z,18.38
2022-12-11T12:46:11.737Z,18.24
2022-12-11T12:49:33.819Z,18.58
2022-12-11T12:52:39.002Z,18.33
2022-12-11T12:55:41.820Z,18.25
2022-12-11T12:58:46.861Z,18.36
2022-12-11T13:01:55.480Z,18.26
2022-12-11T13:05:07.540Z,18.38
2022-12-11T13:08:11.561Z,18.29
2022-12-11T13:11:18.203Z,18.21
2022-12-11T13:14:21.301Z,18.16
2022-12-11T13:17:37.021Z,18.11
2022-12-11T13:20:51.236Z,18.08
2022-12-11T13:23:53.355Z,17.89
2022-12-11T13:26:55.959Z,17.91
2022-12-11T13:30:16.218Z,18.01
2022-12-11T13:33:19.526Z,17.93
2022-12-11T13:36:24.543Z,17.92
2022-12-11T13:39:32.733Z,17.77
2022-12-11T13:42:44.193Z,17.70
2022-12-11T13:45:50.620Z,17.89
2022-12-11T13:48:57.479Z,18.16
2022-12-11T13:52:00.946Z,18.37
2022-12-11T13:55:17.359Z,18.55
2022-12-11T13:58:21.741Z,18.59
2022-12-11T14:01:31.992Z,18.62
2022-12-11T14:04:35.073Z,18.75
2022-12-11T14:07:42.535Z,18.66
2022-12-11T14:10:44.567Z,18.66
2022-12-11T14:13:46.900Z,18.55
2022-12-11T14:16:51.160Z,18.64
2022-12-11T14:19:54.825Z,18.57
2022-12-11T14:23:18.512Z,18.25
2022-12-11T14:26:29.389Z,18.26
2022-12-11T14:29:33.407Z,17.99
2022-12-11T14:32:43.007Z,17.86
2022-12-11T14:35:46.844Z,17.87
2022-12-11T14:39:04.935Z,17.78
2022-12-11T14:42:20.058Z,17.78
2022-12-11T14:45:44.413Z,17.78
2022-12-11T14:49:10.022Z,17.70
2022-12-11T14:52:32.545Z,17.80
2022-12-11T14:55:38.250Z,17.74
2022-12-11T14:58:45.606Z,17.72
2022-12-11T15:01:57.861Z,17.60
2022-12-11T15:05:11.481Z,17.57
2022-12-11T15:08:13.666Z,17.59
2022-12-11T15:11:18.121Z,17.48
2022-12-11T15:14:22.277Z,17.54
2022-12-11T15:17:28.550Z,17.87
2022-12-11T15:20:30.941Z,18.00
2022-12-11T15:23:57.973Z,17.98
2022-12-11T15:27:01.289Z,17.88
2022-12-11T15:30:31.137Z,17.71
2022-12-11T15:33:47.096Z,17.50
2022-12-11T15:36:49.052Z,17.55
2022-12-11T15:39:52.514Z,17.45
2022-12-11T15:42:55.291Z,17.45
2022-12-11T15:46:02.163Z,17.41
2022-12-11T15:49:12.982Z,17.34
2022-12-11T15:52:15.033Z,17.27
2022-12-11T15:55:20.762Z,17.18
2022-12-11T15:58:24.674Z,17.18
2022-12-11T16:01:26.839Z,17.10
2022-12-11T16:04:28.919Z,17.42
2022-12-11T16:07:31.006Z,17.97
2022-12-11T16:10:32.927Z,17.59
2022-12-11T16:13:37.075Z,17.02
2022-12-11T16:16:39.141Z,16.76
2022-12-11T16:19:42.716Z,16.63
2022-12-11T16:22:44.870Z,16.51
2022-12-11T16:25:47.438Z,16.65
2022-12-11T16:28:49.522Z,16.65
2022-12-11T16:31:51.657Z,16.20
2022-12-11T16:34:54.224Z,16.16
2022-12-11T16:37:56.538Z,15.96
2022-12-11T16:41:04.649Z,15.99
2022-12-11T16:44:07.057Z,15.87
2022-12-11T16:47:09.187Z,15.72
2022-12-11T16:50:13.994Z,15.83
2022-12-11T16:53:17.691Z,15.70
2022-12-11T16:56:19.701Z,16.84
2022-12-11T16:59:21.661Z,17.35
2022-12-11T17:02:26.134Z,16.61
2022-12-11T17:05:28.145Z,16.13
2022-12-11T17:08:30.275Z,15.86
2022-12-11T17:11:32.311Z,15.75
2022-12-11T17:14:34.460Z,15.67
2022-12-11T17:17:36.568Z,15.45
2022-12-11T17:21:15.835Z,15.42
2022-12-11T17:24:49.729Z,15.29
2022-12-11T17:27:51.704Z,15.39
2022-12-11T17:30:54.281Z,15.40
2022-12-11T17:34:00.709Z,15.38
2022-12-11T17:37:02.969Z,15.45
2022-12-11T17:40:05.581Z,15.40
2022-12-11T17:43:09.545Z,15.38
2022-12-11T17:46:12.103Z,15.30
2022-12-11T17:49:14.126Z,15.26
2022-12-11T17:52:27.305Z,15.21
2022-12-11T17:55:31.650Z,15.24
2022-12-11T17:58:37.302Z,15.24
2022-12-11T18:01:39.421Z,15.31
2022-12-11T18:04:42.462Z,15.19
2022-12-11T18:07:44.569Z,15.15
2022-12-11T18:10:48.072Z,15.32
2022-12-11T18:13:53.676Z,15.52
2022-12-11T18:16:55.917Z,15.60
2022-12-11T18:19:58.041Z,15.77
2022-12-11T18:23:01.723Z,16.10
2022-12-11T18:26:03.868Z,16.20
2022-12-11T18:29:07.451Z,16.60
2022-12-11T18:32:09.632Z,17.92
2022-12-11T18:35:12.297Z,19.26
2022-12-11T18:38:16.729Z,19.80
2022-12-11T18:41:20.160Z,20.19
2022-12-11T18:44:22.846Z,20.57
2022-12-11T18:47:26.371Z,20.70
2022-12-11T18:50:28.426Z,21.07
2022-12-11T18:53:32.852Z,21.26
2022-12-11T18:56:35.067Z,21.39
2022-12-11T18:59:37.385Z,21.47
2022-12-11T19:02:39.592Z,21.35
2022-12-11T19:05:45.668Z,21.26
2022-12-11T19:08:48.253Z,20.64
2022-12-11T19:11:50.260Z,18.66
2022-12-11T19:14:52.331Z,17.50
2022-12-11T19:17:54.393Z,16.90
2022-12-11T19:21:08.053Z,16.90
2022-12-11T19:24:18.164Z,17.53
2022-12-11T19:27:22.636Z,18.13
2022-12-11T19:30:24.996Z,18.30
2022-12-11T19:33:28.511Z,18.36
2022-12-11T19:36:31.795Z,18.40
2022-12-11T19:39:33.953Z,17.32
2022-12-11T19:42:36.118Z,16.61
2022-12-11T19:45:38.771Z,16.17
2022-12-11T19:48:41.933Z,15.75
2022-12-11T19:51:44.118Z,15.45
2022-12-11T19:54:46.421Z,15.26
2022-12-11T19:57:48.473Z,15.13
2022-12-11T20:00:50.684Z,15.06
2022-12-11T20:03:55.044Z,15.11
2022-12-11T20:06:57.344Z,15.21
2022-12-11T20:10:00.526Z,16.24
2022-12-11T20:13:02.961Z,17.10
2022-12-11T20:16:06.720Z,17.61
2022-12-11T20:19:09.062Z,17.89
2022-12-11T20:22:11.704Z,18.00
2022-12-11T20:25:14.196Z,18.04
2022-12-11T20:28:16.527Z,18.06
2022-12-11T20:31:28.166Z,18.04
2022-12-11T20:34:30.439Z,18.04
2022-12-11T20:37:32.680Z,18.17
2022-12-11T20:40:39.430Z,17.60
2022-12-11T20:43:43.123Z,16.10
2022-12-11T20:46:45.351Z,15.25
2022-12-11T20:49:49.303Z,14.69
2022-12-11T20:52:51.918Z,14.60
2022-12-11T20:55:54.833Z,14.61
2022-12-11T20:58:58.502Z,14.50
2022-12-11T21:02:00.634Z,14.47
2022-12-11T21:05:03.611Z,14.48
2022-12-11T21:08:06.009Z,14.57
2022-12-11T21:11:09.309Z,14.58
2022-12-11T21:14:11.489Z,14.73
2022-12-11T21:17:13.528Z,14.62
2022-12-11T21:20:15.651Z,14.46
2022-12-11T21:23:17.892Z,14.45
2022-12-11T21:26:20.734Z,14.56
2022-12-11T21:29:28.043Z,14.56
2022-12-11T21:32:30.404Z,14.42
2022-12-11T21:35:32.942Z,14.50
2022-12-11T21:38:34.968Z,14.24
2022-12-11T21:41:36.990Z,14.28
2022-12-11T21:48:01.187Z,14.24
2022-12-11T21:51:08.851Z,14.22
2022-12-11T21:54:14.499Z,14.33
2022-12-11T21:57:20.049Z,14.37
2022-12-11T22:00:24.913Z,14.26
2022-12-11T22:03:27.313Z,14.30
2022-12-11T22:06:29.563Z,14.20
2022-12-11T22:09:31.571Z,14.10
2022-12-11T22:12:33.934Z,14.12
2022-12-11T22:15:36.015Z,14.23
2022-12-11T22:18:38.396Z,14.16
2022-12-11T22:21:41.079Z,14.16
2022-12-11T22:24:43.039Z,14.23
2022-12-11T22:27:46.083Z,14.15
2022-12-11T22:30:48.318Z,14.06
2022-12-11T22:33:53.800Z,14.07
2022-12-11T22:36:56.395Z,13.79
2022-12-11T22:39:58.715Z,13.47
2022-12-11T22:43:00.878Z,13.50
2022-12-11T22:46:03.420Z,13.59
2022-12-11T22:49:05.572Z,13.51
2022-12-11T22:52:07.570Z,13.60
2022-12-11T22:55:09.808Z,13.54
2022-12-11T22:58:12.422Z,13.50
2022-12-11T23:01:22.439Z,13.57
2022-12-11T23:04:24.892Z,13.41
2022-12-11T23:07:27.350Z,13.55
2022-12-11T23:10:29.450Z,13.34
2022-12-11T23:13:31.501Z,13.41
2022-12-11T23:16:33.900Z,13.39
2022-12-11T23:19:36.507Z,13.47
2022-12-11T23:22:38.718Z,13.53
2022-12-11T23:25:40.938Z,13.26
2022-12-11T23:28:42.993Z,13.43
2022-12-11T23:31:45.204Z,13.55
2022-12-11T23:34:47.371Z,13.61
2022-12-11T23:37:49.448Z,13.59
2022-12-11T23:40:52.463Z,13.65
2022-12-11T23:43:54.844Z,13.59
2022-12-11T23:46:56.907Z,13.53
2022-12-11T23:49:59.044Z,13.62
2022-12-11T23:53:01.172Z,13.50
2022-12-11T23:56:06.311Z,13.46
2022-12-11T23:59:12.609Z,13.52
